sensor_id;sensor_type;location;lat;lon;timestamp;temperature;humidity
5940;DHT22;2995;-31.998;115.906;2022-12-29T00:00:51;27.80;99.90
5940;DHT22;2995;-31.998;115.906;2022-12-29T00:03:22;28.50;99.90
5940;DHT22;2995;-31.998;115.906;2022-12-29T00:05:58;28.60;99.90
5940;DHT22;2995;-31.998;115.906;2022-12-29T00:08:30;28.70;99.90
5940;DHT22;2995;-31.998;115.906;2022-12-29T00:11:10;28.60;99.90
5940;DHT22;2995;-31.998;115.906;2022-12-29T00:13:42;28.60;99.90
5940;DHT22;2995;-31.998;115.906;2022-12-29T00:16:29;28.40;99.90
5940;DHT22;2995;-31.998;115.906;2022-12-29T00:19:01;28.70;99.90
5940;DHT22;2995;-31.998;115.906;2022-12-29T00:21:34;29.10;99.70
5940;DHT22;2995;-31.998;115.906;2022-12-29T00:24:21;29.10;99.80
5940;DHT22;2995;-31.998;115.906;2022-12-29T00:27:12;29.40;99.30
5940;DHT22;2995;-31.998;115.906;2022-12-29T00:29:59;29.60;98.90
5940;DHT22;2995;-31.998;115.906;2022-12-29T00:32:46;30.20;98.60
5940;DHT22;2995;-31.998;115.906;2022-12-29T00:35:35;30.60;98.10
5940;DHT22;2995;-31.998;115.906;2022-12-29T00:38:12;30.60;97.20
5940;DHT22;2995;-31.998;115.906;2022-12-29T00:40:59;30.60;97.20
5940;DHT22;2995;-31.998;115.906;2022-12-29T00:43:46;30.80;96.60
5940;DHT22;2995;-31.998;115.906;2022-12-29T00:46:32;31.10;96.30
5940;DHT22;2995;-31.998;115.906;2022-12-29T00:49:04;31.30;96.00
5940;DHT22;2995;-31.998;115.906;2022-12-29T00:51:51;31.10;95.70
5940;DHT22;2995;-31.998;115.906;2022-12-29T00:54:25;31.70;95.30
5940;DHT22;2995;-31.998;115.906;2022-12-29T00:56:56;32.20;94.50
5940;DHT22;2995;-31.998;115.906;2022-12-29T00:59:27;31.80;94.40
5940;DHT22;2995;-31.998;115.906;2022-12-29T01:01:59;31.60;93.30
5940;DHT22;2995;-31.998;115.906;2022-12-29T01:04:31;31.70;93.90
5940;DHT22;2995;-31.998;115.906;2022-12-29T01:07:02;31.90;93.70
5940;DHT22;2995;-31.998;115.906;2022-12-29T01:09:35;32.30;93.70
5940;DHT22;2995;-31.998;115.906;2022-12-29T01:12:22;32.90;93.50
5940;DHT22;2995;-31.998;115.906;2022-12-29T01:15:07;33.10;92.80
5940;DHT22;2995;-31.998;115.906;2022-12-29T01:17:38;32.90;92.10
5940;DHT22;2995;-31.998;115.906;2022-12-29T01:20:10;32.80;92.20
5940;DHT22;2995;-31.998;115.906;2022-12-29T01:22:41;33.10;91.10
5940;DHT22;2995;-31.998;115.906;2022-12-29T01:25:14;33.00;91.50
5940;DHT22;2995;-31.998;115.906;2022-12-29T01:27:46;33.30;92.00
5940;DHT22;2995;-31.998;115.906;2022-12-29T01:30:17;33.70;91.10
5940;DHT22;2995;-31.998;115.906;2022-12-29T01:32:48;33.90;91.10
5940;DHT22;2995;-31.998;115.906;2022-12-29T01:35:19;33.80;90.30
5940;DHT22;2995;-31.998;115.906;2022-12-29T01:37:50;34.00;90.20
5940;DHT22;2995;-31.998;115.906;2022-12-29T01:40:24;34.30;89.00
5940;DHT22;2995;-31.998;115.906;2022-12-29T01:42:55;34.10;88.70
5940;DHT22;2995;-31.998;115.906;2022-12-29T01:45:27;34.20;88.20
5940;DHT22;2995;-31.998;115.906;2022-12-29T01:48:00;34.10;88.60
5940;DHT22;2995;-31.998;115.906;2022-12-29T01:50:35;34.30;87.30
5940;DHT22;2995;-31.998;115.906;2022-12-29T01:53:10;34.60;86.70
5940;DHT22;2995;-31.998;115.906;2022-12-29T01:55:46;34.60;86.50
5940;DHT22;2995;-31.998;115.906;2022-12-29T01:58:20;34.10;86.80
5940;DHT22;2995;-31.998;115.906;2022-12-29T02:00:52;33.80;87.50
5940;DHT22;2995;-31.998;115.906;2022-12-29T02:03:25;33.80;87.90
5940;DHT22;2995;-31.998;115.906;2022-12-29T02:06:01;33.20;87.10
5940;DHT22;2995;-31.998;115.906;2022-12-29T02:08:33;33.10;88.00
5940;DHT22;2995;-31.998;115.906;2022-12-29T02:11:06;33.10;85.80
5940;DHT22;2995;-31.998;115.906;2022-12-29T02:13:38;33.00;86.70
5940;DHT22;2995;-31.998;115.906;2022-12-29T02:16:20;33.10;87.90
5940;DHT22;2995;-31.998;115.906;2022-12-29T02:19:03;32.90;85.70
5940;DHT22;2995;-31.998;115.906;2022-12-29T02:21:56;33.20;85.10
5940;DHT22;2995;-31.998;115.906;2022-12-29T02:28:04;34.00;82.30
5940;DHT22;2995;-31.998;115.906;2022-12-29T02:30:58;34.00;84.10
5940;DHT22;2995;-31.998;115.906;2022-12-29T02:33:46;34.10;84.10
5940;DHT22;2995;-31.998;115.906;2022-12-29T02:36:24;34.30;83.60
5940;DHT22;2995;-31.998;115.906;2022-12-29T02:39:04;34.30;81.30
5940;DHT22;2995;-31.998;115.906;2022-12-29T02:41:42;34.20;79.90
5940;DHT22;2995;-31.998;115.906;2022-12-29T02:44:21;34.20;80.20
5940;DHT22;2995;-31.998;115.906;2022-12-29T02:47:01;34.20;77.90
5940;DHT22;2995;-31.998;115.906;2022-12-29T02:49:38;33.70;78.60
5940;DHT22;2995;-31.998;115.906;2022-12-29T02:52:16;33.10;77.30
5940;DHT22;2995;-31.998;115.906;2022-12-29T02:54:52;33.20;79.50
5940;DHT22;2995;-31.998;115.906;2022-12-29T02:57:31;33.20;79.10
5940;DHT22;2995;-31.998;115.906;2022-12-29T03:00:06;33.40;78.30
5940;DHT22;2995;-31.998;115.906;2022-12-29T03:03:04;33.30;78.90
5940;DHT22;2995;-31.998;115.906;2022-12-29T03:05:48;33.30;77.30
5940;DHT22;2995;-31.998;115.906;2022-12-29T03:08:28;33.20;76.80
5940;DHT22;2995;-31.998;115.906;2022-12-29T03:11:04;33.30;78.40
5940;DHT22;2995;-31.998;115.906;2022-12-29T03:13:59;33.70;78.50
5940;DHT22;2995;-31.998;115.906;2022-12-29T03:16:52;33.60;76.90
5940;DHT22;2995;-31.998;115.906;2022-12-29T03:19:30;33.40;75.80
5940;DHT22;2995;-31.998;115.906;2022-12-29T03:22:03;33.70;74.60
5940;DHT22;2995;-31.998;115.906;2022-12-29T03:24:52;34.10;74.20
5940;DHT22;2995;-31.998;115.906;2022-12-29T03:27:29;34.30;74.20
5940;DHT22;2995;-31.998;115.906;2022-12-29T03:30:03;34.20;71.10
5940;DHT22;2995;-31.998;115.906;2022-12-29T03:32:40;34.40;71.00
5940;DHT22;2995;-31.998;115.906;2022-12-29T03:35:16;34.40;72.30
5940;DHT22;2995;-31.998;115.906;2022-12-29T03:37:52;34.10;72.80
5940;DHT22;2995;-31.998;115.906;2022-12-29T03:40:27;34.40;71.30
5940;DHT22;2995;-31.998;115.906;2022-12-29T03:42:59;34.00;71.70
5940;DHT22;2995;-31.998;115.906;2022-12-29T03:45:32;33.80;72.10
5940;DHT22;2995;-31.998;115.906;2022-12-29T03:48:03;33.90;72.30
5940;DHT22;2995;-31.998;115.906;2022-12-29T03:50:37;34.20;70.80
5940;DHT22;2995;-31.998;115.906;2022-12-29T03:53:08;34.10;69.30
5940;DHT22;2995;-31.998;115.906;2022-12-29T03:55:40;34.00;69.80
5940;DHT22;2995;-31.998;115.906;2022-12-29T03:58:11;34.00;68.60
5940;DHT22;2995;-31.998;115.906;2022-12-29T04:00:42;34.20;68.30
5940;DHT22;2995;-31.998;115.906;2022-12-29T04:03:14;34.10;66.70
5940;DHT22;2995;-31.998;115.906;2022-12-29T04:05:47;33.90;61.30
5940;DHT22;2995;-31.998;115.906;2022-12-29T04:08:18;33.50;62.60
5940;DHT22;2995;-31.998;115.906;2022-12-29T04:10:50;34.10;66.60
5940;DHT22;2995;-31.998;115.906;2022-12-29T04:13:21;34.50;65.80
5940;DHT22;2995;-31.998;115.906;2022-12-29T04:15:52;34.70;64.20
5940;DHT22;2995;-31.998;115.906;2022-12-29T04:18:23;34.60;64.00
5940;DHT22;2995;-31.998;115.906;2022-12-29T04:20:56;35.00;62.70
5940;DHT22;2995;-31.998;115.906;2022-12-29T04:23:31;35.20;61.70
5940;DHT22;2995;-31.998;115.906;2022-12-29T04:26:03;35.30;59.80
5940;DHT22;2995;-31.998;115.906;2022-12-29T04:28:38;35.40;60.50
5940;DHT22;2995;-31.998;115.906;2022-12-29T04:31:09;35.30;60.80
5940;DHT22;2995;-31.998;115.906;2022-12-29T04:33:40;35.50;59.60
5940;DHT22;2995;-31.998;115.906;2022-12-29T04:36:13;35.30;60.80
5940;DHT22;2995;-31.998;115.906;2022-12-29T04:38:45;35.50;59.80
5940;DHT22;2995;-31.998;115.906;2022-12-29T04:41:16;35.50;59.80
5940;DHT22;2995;-31.998;115.906;2022-12-29T04:43:47;35.80;60.00
5940;DHT22;2995;-31.998;115.906;2022-12-29T04:46:18;35.80;58.60
5940;DHT22;2995;-31.998;115.906;2022-12-29T04:48:52;35.50;58.40
5940;DHT22;2995;-31.998;115.906;2022-12-29T04:51:25;35.30;58.60
5940;DHT22;2995;-31.998;115.906;2022-12-29T04:53:57;35.50;59.10
5940;DHT22;2995;-31.998;115.906;2022-12-29T04:56:28;35.30;59.00
5940;DHT22;2995;-31.998;115.906;2022-12-29T04:58:59;35.20;58.50
5940;DHT22;2995;-31.998;115.906;2022-12-29T05:01:30;35.40;58.60
5940;DHT22;2995;-31.998;115.906;2022-12-29T05:04:01;35.50;58.40
5940;DHT22;2995;-31.998;115.906;2022-12-29T05:06:35;35.70;57.80
5940;DHT22;2995;-31.998;115.906;2022-12-29T05:09:06;35.50;57.20
5940;DHT22;2995;-31.998;115.906;2022-12-29T05:11:37;35.50;56.30
5940;DHT22;2995;-31.998;115.906;2022-12-29T05:14:09;35.00;57.20
5940;DHT22;2995;-31.998;115.906;2022-12-29T05:16:40;35.10;57.70
5940;DHT22;2995;-31.998;115.906;2022-12-29T05:19:12;35.50;57.80
5940;DHT22;2995;-31.998;115.906;2022-12-29T05:21:45;35.70;57.80
5940;DHT22;2995;-31.998;115.906;2022-12-29T05:24:16;35.80;57.30
5940;DHT22;2995;-31.998;115.906;2022-12-29T05:26:47;35.90;58.00
5940;DHT22;2995;-31.998;115.906;2022-12-29T05:29:18;35.90;57.40
5940;DHT22;2995;-31.998;115.906;2022-12-29T05:31:50;35.70;56.40
5940;DHT22;2995;-31.998;115.906;2022-12-29T05:34:21;35.60;56.30
5940;DHT22;2995;-31.998;115.906;2022-12-29T05:36:54;35.60;56.50
5940;DHT22;2995;-31.998;115.906;2022-12-29T05:39:25;35.90;57.10
5940;DHT22;2995;-31.998;115.906;2022-12-29T05:41:56;36.10;56.90
5940;DHT22;2995;-31.998;115.906;2022-12-29T05:44:28;35.80;55.50
5940;DHT22;2995;-31.998;115.906;2022-12-29T05:46:59;36.00;56.40
5940;DHT22;2995;-31.998;115.906;2022-12-29T05:49:30;35.80;55.60
5940;DHT22;2995;-31.998;115.906;2022-12-29T05:52:03;35.90;55.50
5940;DHT22;2995;-31.998;115.906;2022-12-29T05:54:34;35.70;55.70
5940;DHT22;2995;-31.998;115.906;2022-12-29T05:57:06;35.50;55.10
5940;DHT22;2995;-31.998;115.906;2022-12-29T05:59:37;35.50;55.60
5940;DHT22;2995;-31.998;115.906;2022-12-29T06:02:09;35.80;56.30
5940;DHT22;2995;-31.998;115.906;2022-12-29T06:04:40;35.90;58.00
5940;DHT22;2995;-31.998;115.906;2022-12-29T06:07:14;36.00;61.40
5940;DHT22;2995;-31.998;115.906;2022-12-29T06:09:46;36.10;64.10
5940;DHT22;2995;-31.998;115.906;2022-12-29T06:12:18;36.10;64.60
5940;DHT22;2995;-31.998;115.906;2022-12-29T06:14:49;35.80;64.80
5940;DHT22;2995;-31.998;115.906;2022-12-29T06:17:20;35.50;69.70
5940;DHT22;2995;-31.998;115.906;2022-12-29T06:19:51;35.50;67.10
5940;DHT22;2995;-31.998;115.906;2022-12-29T06:22:24;35.40;65.20
5940;DHT22;2995;-31.998;115.906;2022-12-29T06:24:56;35.40;62.20
5940;DHT22;2995;-31.998;115.906;2022-12-29T06:27:27;35.30;64.20
5940;DHT22;2995;-31.998;115.906;2022-12-29T06:29:58;35.10;64.60
5940;DHT22;2995;-31.998;115.906;2022-12-29T06:32:29;34.90;66.00
5940;DHT22;2995;-31.998;115.906;2022-12-29T06:35:00;34.70;65.10
5940;DHT22;2995;-31.998;115.906;2022-12-29T06:37:34;34.50;63.80
5940;DHT22;2995;-31.998;115.906;2022-12-29T06:40:06;34.50;64.50
5940;DHT22;2995;-31.998;115.906;2022-12-29T06:42:37;34.60;62.80
5940;DHT22;2995;-31.998;115.906;2022-12-29T06:45:09;34.60;69.70
5940;DHT22;2995;-31.998;115.906;2022-12-29T06:47:40;34.60;70.70
5940;DHT22;2995;-31.998;115.906;2022-12-29T06:50:11;34.40;67.00
5940;DHT22;2995;-31.998;115.906;2022-12-29T06:52:45;34.30;66.10
5940;DHT22;2995;-31.998;115.906;2022-12-29T06:55:16;34.50;65.90
5940;DHT22;2995;-31.998;115.906;2022-12-29T06:57:49;34.40;66.60
5940;DHT22;2995;-31.998;115.906;2022-12-29T07:00:21;34.30;64.70
5940;DHT22;2995;-31.998;115.906;2022-12-29T07:02:52;34.40;65.00
5940;DHT22;2995;-31.998;115.906;2022-12-29T07:05:26;34.40;63.90
5940;DHT22;2995;-31.998;115.906;2022-12-29T07:08:01;34.30;60.90
5940;DHT22;2995;-31.998;115.906;2022-12-29T07:10:32;34.00;59.10
5940;DHT22;2995;-31.998;115.906;2022-12-29T07:13:03;34.20;59.90
5940;DHT22;2995;-31.998;115.906;2022-12-29T07:15:36;34.30;61.30
5940;DHT22;2995;-31.998;115.906;2022-12-29T07:18:07;34.10;61.80
5940;DHT22;2995;-31.998;115.906;2022-12-29T07:20:38;33.90;62.80
5940;DHT22;2995;-31.998;115.906;2022-12-29T07:23:14;34.10;64.20
5940;DHT22;2995;-31.998;115.906;2022-12-29T07:25:45;33.90;63.70
5940;DHT22;2995;-31.998;115.906;2022-12-29T07:28:16;33.80;62.10
5940;DHT22;2995;-31.998;115.906;2022-12-29T07:30:48;33.60;62.60
5940;DHT22;2995;-31.998;115.906;2022-12-29T07:33:19;33.70;63.80
5940;DHT22;2995;-31.998;115.906;2022-12-29T07:35:50;33.60;63.60
5940;DHT22;2995;-31.998;115.906;2022-12-29T07:38:24;33.40;63.60
5940;DHT22;2995;-31.998;115.906;2022-12-29T07:40:58;33.40;60.50
5940;DHT22;2995;-31.998;115.906;2022-12-29T07:43:29;33.50;61.60
5940;DHT22;2995;-31.998;115.906;2022-12-29T07:46:00;33.50;60.80
5940;DHT22;2995;-31.998;115.906;2022-12-29T07:48:31;33.40;62.70
5940;DHT22;2995;-31.998;115.906;2022-12-29T07:51:04;33.20;64.90
5940;DHT22;2995;-31.998;115.906;2022-12-29T07:53:40;33.10;60.40
5940;DHT22;2995;-31.998;115.906;2022-12-29T07:56:11;32.80;61.30
5940;DHT22;2995;-31.998;115.906;2022-12-29T07:58:43;32.90;61.20
5940;DHT22;2995;-31.998;115.906;2022-12-29T08:01:14;32.70;64.10
5940;DHT22;2995;-31.998;115.906;2022-12-29T08:03:45;32.70;67.00
5940;DHT22;2995;-31.998;115.906;2022-12-29T08:06:17;32.60;68.80
5940;DHT22;2995;-31.998;115.906;2022-12-29T08:08:50;32.40;71.80
5940;DHT22;2995;-31.998;115.906;2022-12-29T08:11:21;32.30;73.00
5940;DHT22;2995;-31.998;115.906;2022-12-29T08:13:52;32.30;75.30
5940;DHT22;2995;-31.998;115.906;2022-12-29T08:16:24;32.30;77.10
5940;DHT22;2995;-31.998;115.906;2022-12-29T08:18:55;32.20;78.60
5940;DHT22;2995;-31.998;115.906;2022-12-29T08:21:28;32.20;77.80
5940;DHT22;2995;-31.998;115.906;2022-12-29T08:24:01;32.10;77.30
5940;DHT22;2995;-31.998;115.906;2022-12-29T08:26:32;32.00;80.10
5940;DHT22;2995;-31.998;115.906;2022-12-29T08:29:03;31.90;81.40
5940;DHT22;2995;-31.998;115.906;2022-12-29T08:31:35;32.00;81.70
5940;DHT22;2995;-31.998;115.906;2022-12-29T08:34:06;31.90;80.80
5940;DHT22;2995;-31.998;115.906;2022-12-29T08:36:37;32.00;82.60
5940;DHT22;2995;-31.998;115.906;2022-12-29T08:39:10;32.10;83.80
5940;DHT22;2995;-31.998;115.906;2022-12-29T08:41:41;31.90;83.60
5940;DHT22;2995;-31.998;115.906;2022-12-29T08:44:13;31.80;81.40
5940;DHT22;2995;-31.998;115.906;2022-12-29T08:46:44;31.90;79.90
5940;DHT22;2995;-31.998;115.906;2022-12-29T08:49:15;31.80;72.40
5940;DHT22;2995;-31.998;115.906;2022-12-29T08:51:46;31.70;72.10
5940;DHT22;2995;-31.998;115.906;2022-12-29T08:54:19;31.70;72.80
5940;DHT22;2995;-31.998;115.906;2022-12-29T08:56:51;31.50;71.60
5940;DHT22;2995;-31.998;115.906;2022-12-29T08:59:22;31.40;71.70
5940;DHT22;2995;-31.998;115.906;2022-12-29T09:01:53;31.50;73.30
5940;DHT22;2995;-31.998;115.906;2022-12-29T09:04:25;31.60;75.10
5940;DHT22;2995;-31.998;115.906;2022-12-29T09:06:56;31.60;75.60
5940;DHT22;2995;-31.998;115.906;2022-12-29T09:09:29;31.50;75.10
5940;DHT22;2995;-31.998;115.906;2022-12-29T09:12:00;31.40;75.10
5940;DHT22;2995;-31.998;115.906;2022-12-29T09:14:31;31.50;75.10
5940;DHT22;2995;-31.998;115.906;2022-12-29T09:17:03;31.30;74.90
5940;DHT22;2995;-31.998;115.906;2022-12-29T09:19:50;31.30;74.80
5940;DHT22;2995;-31.998;115.906;2022-12-29T09:22:21;31.30;75.50
5940;DHT22;2995;-31.998;115.906;2022-12-29T09:24:54;31.20;75.30
5940;DHT22;2995;-31.998;115.906;2022-12-29T09:27:25;31.10;74.80
5940;DHT22;2995;-31.998;115.906;2022-12-29T09:29:58;31.10;75.20
5940;DHT22;2995;-31.998;115.906;2022-12-29T09:32:29;31.00;75.50
5940;DHT22;2995;-31.998;115.906;2022-12-29T09:35:00;31.00;74.90
5940;DHT22;2995;-31.998;115.906;2022-12-29T09:37:31;30.90;74.60
5940;DHT22;2995;-31.998;115.906;2022-12-29T09:40:05;30.90;75.00
5940;DHT22;2995;-31.998;115.906;2022-12-29T09:42:41;30.70;74.20
5940;DHT22;2995;-31.998;115.906;2022-12-29T09:45:15;30.80;75.30
5940;DHT22;2995;-31.998;115.906;2022-12-29T09:47:48;30.80;73.90
5940;DHT22;2995;-31.998;115.906;2022-12-29T09:50:24;30.90;74.00
5940;DHT22;2995;-31.998;115.906;2022-12-29T09:53:00;30.90;72.80
5940;DHT22;2995;-31.998;115.906;2022-12-29T09:55:38;30.70;72.20
5940;DHT22;2995;-31.998;115.906;2022-12-29T09:58:14;30.70;73.20
5940;DHT22;2995;-31.998;115.906;2022-12-29T10:00:50;30.60;71.30
5940;DHT22;2995;-31.998;115.906;2022-12-29T10:03:26;30.50;70.60
5940;DHT22;2995;-31.998;115.906;2022-12-29T10:06:03;30.30;69.80
5940;DHT22;2995;-31.998;115.906;2022-12-29T10:08:40;30.30;69.50
5940;DHT22;2995;-31.998;115.906;2022-12-29T10:11:23;30.20;68.70
5940;DHT22;2995;-31.998;115.906;2022-12-29T10:14:19;30.20;67.80
5940;DHT22;2995;-31.998;115.906;2022-12-29T10:16:57;30.00;67.80
5940;DHT22;2995;-31.998;115.906;2022-12-29T10:19:43;29.90;68.20
5940;DHT22;2995;-31.998;115.906;2022-12-29T10:22:27;29.70;68.50
5940;DHT22;2995;-31.998;115.906;2022-12-29T10:25:06;29.70;68.50
5940;DHT22;2995;-31.998;115.906;2022-12-29T10:27:47;29.60;69.00
5940;DHT22;2995;-31.998;115.906;2022-12-29T10:30:19;29.50;69.20
5940;DHT22;2995;-31.998;115.906;2022-12-29T10:32:52;29.40;69.60
5940;DHT22;2995;-31.998;115.906;2022-12-29T10:35:25;29.20;69.50
5940;DHT22;2995;-31.998;115.906;2022-12-29T10:38:01;29.20;70.60
5940;DHT22;2995;-31.998;115.906;2022-12-29T10:40:38;29.30;70.80
5940;DHT22;2995;-31.998;115.906;2022-12-29T10:43:26;29.10;70.50
5940;DHT22;2995;-31.998;115.906;2022-12-29T10:45:59;29.00;71.00
5940;DHT22;2995;-31.998;115.906;2022-12-29T10:48:32;28.90;71.50
5940;DHT22;2995;-31.998;115.906;2022-12-29T10:51:08;28.70;72.20
5940;DHT22;2995;-31.998;115.906;2022-12-29T10:53:43;28.60;73.00
5940;DHT22;2995;-31.998;115.906;2022-12-29T10:58:52;28.50;73.50
5940;DHT22;2995;-31.998;115.906;2022-12-29T11:01:32;28.30;75.00
5940;DHT22;2995;-31.998;115.906;2022-12-29T11:04:10;28.40;75.50
5940;DHT22;2995;-31.998;115.906;2022-12-29T11:06:46;28.20;76.10
5940;DHT22;2995;-31.998;115.906;2022-12-29T11:09:28;28.10;77.10
5940;DHT22;2995;-31.998;115.906;2022-12-29T11:12:00;28.10;77.40
5940;DHT22;2995;-31.998;115.906;2022-12-29T11:14:33;28.10;77.60
5940;DHT22;2995;-31.998;115.906;2022-12-29T11:17:05;28.10;78.50
5940;DHT22;2995;-31.998;115.906;2022-12-29T11:19:36;27.80;79.30
5940;DHT22;2995;-31.998;115.906;2022-12-29T11:22:14;27.70;79.20
5940;DHT22;2995;-31.998;115.906;2022-12-29T11:24:54;27.80;80.60
5940;DHT22;2995;-31.998;115.906;2022-12-29T11:27:35;27.70;81.80
5940;DHT22;2995;-31.998;115.906;2022-12-29T11:30:23;27.60;82.10
5940;DHT22;2995;-31.998;115.906;2022-12-29T11:32:55;27.60;82.30
5940;DHT22;2995;-31.998;115.906;2022-12-29T11:35:35;27.50;83.10
5940;DHT22;2995;-31.998;115.906;2022-12-29T11:38:11;27.20;83.80
5940;DHT22;2995;-31.998;115.906;2022-12-29T11:40:47;27.10;83.80
5940;DHT22;2995;-31.998;115.906;2022-12-29T11:43:23;27.00;84.20
5940;DHT22;2995;-31.998;115.906;2022-12-29T11:45:57;26.80;84.50
5940;DHT22;2995;-31.998;115.906;2022-12-29T11:48:33;26.90;84.60
5940;DHT22;2995;-31.998;115.906;2022-12-29T11:51:12;26.80;84.50
5940;DHT22;2995;-31.998;115.906;2022-12-29T11:53:45;26.80;85.00
5940;DHT22;2995;-31.998;115.906;2022-12-29T11:56:19;26.70;85.50
5940;DHT22;2995;-31.998;115.906;2022-12-29T11:58:51;26.70;85.30
5940;DHT22;2995;-31.998;115.906;2022-12-29T12:01:29;26.50;85.50
5940;DHT22;2995;-31.998;115.906;2022-12-29T12:04:06;26.50;85.90
5940;DHT22;2995;-31.998;115.906;2022-12-29T12:06:43;26.50;85.70
5940;DHT22;2995;-31.998;115.906;2022-12-29T12:09:19;26.50;85.60
5940;DHT22;2995;-31.998;115.906;2022-12-29T12:11:54;26.70;85.20
5940;DHT22;2995;-31.998;115.906;2022-12-29T12:14:30;26.50;85.30
5940;DHT22;2995;-31.998;115.906;2022-12-29T12:17:11;26.20;85.70
5940;DHT22;2995;-31.998;115.906;2022-12-29T12:19:46;26.20;86.00
5940;DHT22;2995;-31.998;115.906;2022-12-29T12:22:21;26.10;85.70
5940;DHT22;2995;-31.998;115.906;2022-12-29T12:24:59;26.20;86.00
5940;DHT22;2995;-31.998;115.906;2022-12-29T12:27:38;26.10;86.10
5940;DHT22;2995;-31.998;115.906;2022-12-29T12:30:15;26.00;86.10
5940;DHT22;2995;-31.998;115.906;2022-12-29T12:32:53;26.00;86.20
5940;DHT22;2995;-31.998;115.906;2022-12-29T12:35:32;26.00;86.10
5940;DHT22;2995;-31.998;115.906;2022-12-29T12:38:21;25.90;86.30
5940;DHT22;2995;-31.998;115.906;2022-12-29T12:41:09;25.90;86.10
5940;DHT22;2995;-31.998;115.906;2022-12-29T12:43:45;25.90;85.90
5940;DHT22;2995;-31.998;115.906;2022-12-29T12:46:48;25.90;85.70
5940;DHT22;2995;-31.998;115.906;2022-12-29T12:49:40;25.70;85.60
5940;DHT22;2995;-31.998;115.906;2022-12-29T12:52:20;25.70;85.80
5940;DHT22;2995;-31.998;115.906;2022-12-29T12:55:10;25.60;85.80
5940;DHT22;2995;-31.998;115.906;2022-12-29T12:57:51;25.60;85.80
5940;DHT22;2995;-31.998;115.906;2022-12-29T13:00:24;25.60;85.80
5940;DHT22;2995;-31.998;115.906;2022-12-29T13:03:04;25.40;85.60
5940;DHT22;2995;-31.998;115.906;2022-12-29T13:05:56;25.40;86.00
5940;DHT22;2995;-31.998;115.906;2022-12-29T13:08:47;25.40;86.10
5940;DHT22;2995;-31.998;115.906;2022-12-29T13:11:24;25.40;85.90
5940;DHT22;2995;-31.998;115.906;2022-12-29T13:14:12;25.40;85.80
5940;DHT22;2995;-31.998;115.906;2022-12-29T13:16:50;25.30;86.00
5940;DHT22;2995;-31.998;115.906;2022-12-29T13:19:27;25.30;85.80
5940;DHT22;2995;-31.998;115.906;2022-12-29T13:22:09;25.10;86.10
5940;DHT22;2995;-31.998;115.906;2022-12-29T13:24:51;25.00;86.60
5940;DHT22;2995;-31.998;115.906;2022-12-29T13:27:32;25.10;86.70
5940;DHT22;2995;-31.998;115.906;2022-12-29T13:30:10;25.00;86.70
5940;DHT22;2995;-31.998;115.906;2022-12-29T13:32:54;25.10;87.50
5940;DHT22;2995;-31.998;115.906;2022-12-29T13:35:42;25.10;87.20
5940;DHT22;2995;-31.998;115.906;2022-12-29T13:38:23;25.10;86.90
5940;DHT22;2995;-31.998;115.906;2022-12-29T13:40:56;25.00;87.30
5940;DHT22;2995;-31.998;115.906;2022-12-29T13:43:31;25.00;87.70
5940;DHT22;2995;-31.998;115.906;2022-12-29T13:46:07;25.00;87.50
5940;DHT22;2995;-31.998;115.906;2022-12-29T13:48:44;24.90;87.60
5940;DHT22;2995;-31.998;115.906;2022-12-29T13:51:17;24.80;88.00
5940;DHT22;2995;-31.998;115.906;2022-12-29T13:54:00;24.70;87.90
5940;DHT22;2995;-31.998;115.906;2022-12-29T13:56:37;24.70;88.80
5940;DHT22;2995;-31.998;115.906;2022-12-29T13:59:17;24.90;88.20
5940;DHT22;2995;-31.998;115.906;2022-12-29T14:01:54;24.90;89.00
5940;DHT22;2995;-31.998;115.906;2022-12-29T14:04:29;25.00;88.70
5940;DHT22;2995;-31.998;115.906;2022-12-29T14:07:04;24.90;88.90
5940;DHT22;2995;-31.998;115.906;2022-12-29T14:09:45;24.80;88.90
5940;DHT22;2995;-31.998;115.906;2022-12-29T14:12:37;24.70;90.00
5940;DHT22;2995;-31.998;115.906;2022-12-29T14:15:23;24.70;90.20
5940;DHT22;2995;-31.998;115.906;2022-12-29T14:18:05;24.60;90.20
5940;DHT22;2995;-31.998;115.906;2022-12-29T14:20:52;24.30;90.30
5940;DHT22;2995;-31.998;115.906;2022-12-29T14:23:44;24.00;90.60
5940;DHT22;2995;-31.998;115.906;2022-12-29T14:26:35;23.80;90.70
5940;DHT22;2995;-31.998;115.906;2022-12-29T14:29:44;23.80;90.60
5940;DHT22;2995;-31.998;115.906;2022-12-29T14:32:36;23.80;90.80
5940;DHT22;2995;-31.998;115.906;2022-12-29T14:35:41;23.80;91.10
5940;DHT22;2995;-31.998;115.906;2022-12-29T14:38:18;23.80;91.20
5940;DHT22;2995;-31.998;115.906;2022-12-29T14:40:50;23.80;91.50
5940;DHT22;2995;-31.998;115.906;2022-12-29T14:43:26;23.90;91.70
5940;DHT22;2995;-31.998;115.906;2022-12-29T14:46:00;24.10;91.50
5940;DHT22;2995;-31.998;115.906;2022-12-29T14:48:40;24.20;91.60
5940;DHT22;2995;-31.998;115.906;2022-12-29T14:51:30;24.10;91.60
5940;DHT22;2995;-31.998;115.906;2022-12-29T14:54:41;24.00;91.90
5940;DHT22;2995;-31.998;115.906;2022-12-29T14:57:20;23.80;92.10
5940;DHT22;2995;-31.998;115.906;2022-12-29T14:59:55;23.80;92.70
5940;DHT22;2995;-31.998;115.906;2022-12-29T15:02:34;23.90;92.20
5940;DHT22;2995;-31.998;115.906;2022-12-29T15:05:30;23.80;92.70
5940;DHT22;2995;-31.998;115.906;2022-12-29T15:08:03;23.60;92.90
5940;DHT22;2995;-31.998;115.906;2022-12-29T15:10:39;23.70;92.90
5940;DHT22;2995;-31.998;115.906;2022-12-29T15:13:21;23.50;93.10
5940;DHT22;2995;-31.998;115.906;2022-12-29T15:15:55;23.40;93.40
5940;DHT22;2995;-31.998;115.906;2022-12-29T15:18:28;23.40;93.50
5940;DHT22;2995;-31.998;115.906;2022-12-29T15:21:00;23.30;93.90
5940;DHT22;2995;-31.998;115.906;2022-12-29T15:23:33;23.20;94.30
5940;DHT22;2995;-31.998;115.906;2022-12-29T15:26:06;23.10;94.50
5940;DHT22;2995;-31.998;115.906;2022-12-29T15:28:42;23.10;94.70
5940;DHT22;2995;-31.998;115.906;2022-12-29T15:31:16;23.10;94.60
5940;DHT22;2995;-31.998;115.906;2022-12-29T15:33:50;22.90;94.80
5940;DHT22;2995;-31.998;115.906;2022-12-29T15:36:23;22.90;95.10
5940;DHT22;2995;-31.998;115.906;2022-12-29T15:38:54;23.00;95.10
5940;DHT22;2995;-31.998;115.906;2022-12-29T15:41:35;22.90;95.40
5940;DHT22;2995;-31.998;115.906;2022-12-29T15:44:25;22.90;95.50
5940;DHT22;2995;-31.998;115.906;2022-12-29T15:47:01;22.70;95.70
5940;DHT22;2995;-31.998;115.906;2022-12-29T15:49:33;22.70;96.00
5940;DHT22;2995;-31.998;115.906;2022-12-29T15:52:08;22.80;96.00
5940;DHT22;2995;-31.998;115.906;2022-12-29T15:54:43;22.70;96.60
5940;DHT22;2995;-31.998;115.906;2022-12-29T15:57:22;22.60;96.80
5940;DHT22;2995;-31.998;115.906;2022-12-29T15:59:55;22.60;97.40
5940;DHT22;2995;-31.998;115.906;2022-12-29T16:02:29;22.60;97.80
5940;DHT22;2995;-31.998;115.906;2022-12-29T16:05:01;22.40;98.20
5940;DHT22;2995;-31.998;115.906;2022-12-29T16:07:33;22.50;98.10
5940;DHT22;2995;-31.998;115.906;2022-12-29T16:10:05;22.50;99.00
5940;DHT22;2995;-31.998;115.906;2022-12-29T16:12:37;22.40;98.90
5940;DHT22;2995;-31.998;115.906;2022-12-29T16:15:13;22.30;99.40